sensor_id;sensor_type;location;lat;lon;timestamp;temperature;humidity
37002;DHT22;22913;51.910;8.374;2023-02-20T00:00:34;6.70;99.90
37002;DHT22;22913;51.910;8.374;2023-02-20T00:03:21;6.60;99.90
37002;DHT22;22913;51.910;8.374;2023-02-20T00:06:08;6.60;99.90
37002;DHT22;22913;51.910;8.374;2023-02-20T00:08:54;6.70;99.90
37002;DHT22;22913;51.910;8.374;2023-02-20T00:11:40;6.70;99.90
37002;DHT22;22913;51.910;8.374;2023-02-20T00:14:26;6.70;99.90
37002;DHT22;22913;51.910;8.374;2023-02-20T00:17:13;6.80;99.90
37002;DHT22;22913;51.910;8.374;2023-02-20T00:19:59;6.80;99.90
37002;DHT22;22913;51.910;8.374;2023-02-20T00:22:46;6.70;99.90
37002;DHT22;22913;51.910;8.374;2023-02-20T00:25:32;6.70;99.90
37002;DHT22;22913;51.910;8.374;2023-02-20T00:28:20;6.60;99.90
37002;DHT22;22913;51.910;8.374;2023-02-20T00:31:10;6.60;99.90
37002;DHT22;22913;51.910;8.374;2023-02-20T00:33:56;6.60;99.90
37002;DHT22;22913;51.910;8.374;2023-02-20T00:36:42;6.70;99.90
37002;DHT22;22913;51.910;8.374;2023-02-20T00:39:30;6.60;99.90
37002;DHT22;22913;51.910;8.374;2023-02-20T00:42:16;6.60;99.90
37002;DHT22;22913;51.910;8.374;2023-02-20T00:45:04;6.60;99.90
37002;DHT22;22913;51.910;8.374;2023-02-20T00:47:49;6.60;99.90
37002;DHT22;22913;51.910;8.374;2023-02-20T00:50:35;6.60;99.90
37002;DHT22;22913;51.910;8.374;2023-02-20T00:53:22;6.60;99.90
37002;DHT22;22913;51.910;8.374;2023-02-20T00:56:09;6.60;99.90
37002;DHT22;22913;51.910;8.374;2023-02-20T00:58:55;6.60;99.90
37002;DHT22;22913;51.910;8.374;2023-02-20T01:01:41;6.60;99.90
37002;DHT22;22913;51.910;8.374;2023-02-20T01:04:27;6.60;99.90
37002;DHT22;22913;51.910;8.374;2023-02-20T01:07:13;6.60;99.90
37002;DHT22;22913;51.910;8.374;2023-02-20T01:09:59;6.60;99.90
37002;DHT22;22913;51.910;8.374;2023-02-20T01:12:46;6.60;99.90
37002;DHT22;22913;51.910;8.374;2023-02-20T01:15:32;6.60;99.90
37002;DHT22;22913;51.910;8.374;2023-02-20T01:18:18;6.50;99.90
37002;DHT22;22913;51.910;8.374;2023-02-20T01:21:04;6.50;99.90
37002;DHT22;22913;51.910;8.374;2023-02-20T01:23:49;6.50;99.90
37002;DHT22;22913;51.910;8.374;2023-02-20T01:26:37;6.50;99.90
37002;DHT22;22913;51.910;8.374;2023-02-20T01:29:27;6.50;99.90
37002;DHT22;22913;51.910;8.374;2023-02-20T01:32:13;6.40;99.90
37002;DHT22;22913;51.910;8.374;2023-02-20T01:34:58;6.50;99.90
37002;DHT22;22913;51.910;8.374;2023-02-20T01:37:44;6.40;99.90
37002;DHT22;22913;51.910;8.374;2023-02-20T01:40:30;6.40;99.90
37002;DHT22;22913;51.910;8.374;2023-02-20T01:43:16;6.30;99.90
37002;DHT22;22913;51.910;8.374;2023-02-20T01:49:31;6.30;99.90
37002;DHT22;22913;51.910;8.374;2023-02-20T01:52:20;6.30;99.90
37002;DHT22;22913;51.910;8.374;2023-02-20T01:55:09;6.20;99.90
37002;DHT22;22913;51.910;8.374;2023-02-20T01:58:00;6.30;99.90
37002;DHT22;22913;51.910;8.374;2023-02-20T02:00:47;6.20;99.90
37002;DHT22;22913;51.910;8.374;2023-02-20T02:03:35;6.30;99.90
37002;DHT22;22913;51.910;8.374;2023-02-20T02:06:23;6.30;99.90
37002;DHT22;22913;51.910;8.374;2023-02-20T02:09:14;6.30;99.90
37002;DHT22;22913;51.910;8.374;2023-02-20T02:12:01;6.30;99.90
37002;DHT22;22913;51.910;8.374;2023-02-20T02:14:46;6.30;99.90
37002;DHT22;22913;51.910;8.374;2023-02-20T02:17:53;6.30;99.90
37002;DHT22;22913;51.910;8.374;2023-02-20T02:24:34;6.30;99.90
37002;DHT22;22913;51.910;8.374;2023-02-20T02:28:00;6.30;99.90
37002;DHT22;22913;51.910;8.374;2023-02-20T02:31:17;6.30;99.90
37002;DHT22;22913;51.910;8.374;2023-02-20T02:34:32;6.40;99.90
37002;DHT22;22913;51.910;8.374;2023-02-20T02:37:32;6.40;99.90
37002;DHT22;22913;51.910;8.374;2023-02-20T02:40:25;6.40;99.90
37002;DHT22;22913;51.910;8.374;2023-02-20T02:43:16;6.50;99.90
37002;DHT22;22913;51.910;8.374;2023-02-20T02:46:07;6.50;99.90
37002;DHT22;22913;51.910;8.374;2023-02-20T02:48:59;6.50;99.90
37002;DHT22;22913;51.910;8.374;2023-02-20T02:51:47;6.50;99.90
37002;DHT22;22913;51.910;8.374;2023-02-20T02:54:34;6.50;99.90
37002;DHT22;22913;51.910;8.374;2023-02-20T02:57:22;6.60;99.90
37002;DHT22;22913;51.910;8.374;2023-02-20T03:00:10;6.70;99.90
37002;DHT22;22913;51.910;8.374;2023-02-20T03:02:58;6.70;99.90
37002;DHT22;22913;51.910;8.374;2023-02-20T03:05:49;6.70;99.90
37002;DHT22;22913;51.910;8.374;2023-02-20T03:08:41;6.70;99.90
37002;DHT22;22913;51.910;8.374;2023-02-20T03:11:31;6.80;99.90
37002;DHT22;22913;51.910;8.374;2023-02-20T03:14:21;6.90;99.90
37002;DHT22;22913;51.910;8.374;2023-02-20T03:17:29;6.90;99.90
37002;DHT22;22913;51.910;8.374;2023-02-20T03:20:17;6.90;99.90
37002;DHT22;22913;51.910;8.374;2023-02-20T03:23:07;6.90;99.90
37002;DHT22;22913;51.910;8.374;2023-02-20T03:25:58;6.90;99.90
37002;DHT22;22913;51.910;8.374;2023-02-20T03:28:50;6.90;99.90
37002;DHT22;22913;51.910;8.374;2023-02-20T03:31:39;6.90;99.90
37002;DHT22;22913;51.910;8.374;2023-02-20T03:34:27;6.90;99.90
37002;DHT22;22913;51.910;8.374;2023-02-20T03:37:32;6.90;99.90
37002;DHT22;22913;51.910;8.374;2023-02-20T03:40:38;6.90;99.90
37002;DHT22;22913;51.910;8.374;2023-02-20T03:43:44;6.80;99.90
37002;DHT22;22913;51.910;8.374;2023-02-20T03:46:33;6.80;99.90
37002;DHT22;22913;51.910;8.374;2023-02-20T03:49:22;6.80;99.90
37002;DHT22;22913;51.910;8.374;2023-02-20T03:52:10;6.80;99.90
37002;DHT22;22913;51.910;8.374;2023-02-20T03:54:56;6.90;99.90
37002;DHT22;22913;51.910;8.374;2023-02-20T03:57:45;6.90;99.90
37002;DHT22;22913;51.910;8.374;2023-02-20T04:00:39;6.80;99.90
37002;DHT22;22913;51.910;8.374;2023-02-20T04:03:29;6.80;99.90
37002;DHT22;22913;51.910;8.374;2023-02-20T04:06:18;6.80;99.90
37002;DHT22;22913;51.910;8.374;2023-02-20T04:09:09;6.80;99.90
37002;DHT22;22913;51.910;8.374;2023-02-20T04:11:59;6.90;99.90
37002;DHT22;22913;51.910;8.374;2023-02-20T04:14:49;6.80;99.90
37002;DHT22;22913;51.910;8.374;2023-02-20T04:17:41;6.80;99.90
37002;DHT22;22913;51.910;8.374;2023-02-20T04:20:30;6.80;99.90
37002;DHT22;22913;51.910;8.374;2023-02-20T04:23:18;6.80;99.90
37002;DHT22;22913;51.910;8.374;2023-02-20T04:26:07;6.80;99.90
37002;DHT22;22913;51.910;8.374;2023-02-20T04:28:54;6.90;99.90
37002;DHT22;22913;51.910;8.374;2023-02-20T04:31:40;6.90;99.90
37002;DHT22;22913;51.910;8.374;2023-02-20T04:34:26;6.90;99.90
37002;DHT22;22913;51.910;8.374;2023-02-20T04:37:16;6.90;99.90
37002;DHT22;22913;51.910;8.374;2023-02-20T04:40:02;6.90;99.90
37002;DHT22;22913;51.910;8.374;2023-02-20T04:42:48;6.90;99.90
37002;DHT22;22913;51.910;8.374;2023-02-20T04:45:33;6.90;99.90
37002;DHT22;22913;51.910;8.374;2023-02-20T04:48:19;7.00;99.90
37002;DHT22;22913;51.910;8.374;2023-02-20T04:51:05;6.90;99.90
37002;DHT22;22913;51.910;8.374;2023-02-20T04:53:52;6.90;99.90
37002;DHT22;22913;51.910;8.374;2023-02-20T04:56:38;6.90;99.90
37002;DHT22;22913;51.910;8.374;2023-02-20T04:59:24;6.90;99.90
37002;DHT22;22913;51.910;8.374;2023-02-20T05:02:10;6.90;99.90
37002;DHT22;22913;51.910;8.374;2023-02-20T05:04:56;6.90;99.90
37002;DHT22;22913;51.910;8.374;2023-02-20T05:07:42;6.90;99.90
37002;DHT22;22913;51.910;8.374;2023-02-20T05:10:31;6.90;99.90
37002;DHT22;22913;51.910;8.374;2023-02-20T05:13:16;6.90;99.90
37002;DHT22;22913;51.910;8.374;2023-02-20T05:16:02;6.90;99.90
37002;DHT22;22913;51.910;8.374;2023-02-20T05:18:48;6.90;99.90
37002;DHT22;22913;51.910;8.374;2023-02-20T05:21:34;6.90;99.90
37002;DHT22;22913;51.910;8.374;2023-02-20T05:24:38;6.90;99.90
37002;DHT22;22913;51.910;8.374;2023-02-20T05:27:26;6.90;99.90
37002;DHT22;22913;51.910;8.374;2023-02-20T05:30:12;6.90;99.90
37002;DHT22;22913;51.910;8.374;2023-02-20T05:32:57;6.90;99.90
37002;DHT22;22913;51.910;8.374;2023-02-20T05:35:44;6.90;99.90
37002;DHT22;22913;51.910;8.374;2023-02-20T05:38:30;6.90;99.90
37002;DHT22;22913;51.910;8.374;2023-02-20T05:41:16;6.90;99.90
37002;DHT22;22913;51.910;8.374;2023-02-20T05:44:04;7.00;99.90
37002;DHT22;22913;51.910;8.374;2023-02-20T05:46:50;7.00;99.90
37002;DHT22;22913;51.910;8.374;2023-02-20T05:49:37;7.00;99.90
37002;DHT22;22913;51.910;8.374;2023-02-20T05:52:23;6.90;99.90
37002;DHT22;22913;51.910;8.374;2023-02-20T05:55:09;7.00;99.90
37002;DHT22;22913;51.910;8.374;2023-02-20T05:57:54;6.90;99.90
37002;DHT22;22913;51.910;8.374;2023-02-20T06:00:41;7.00;99.90
37002;DHT22;22913;51.910;8.374;2023-02-20T06:03:27;6.90;99.90
37002;DHT22;22913;51.910;8.374;2023-02-20T06:06:13;6.90;99.90
37002;DHT22;22913;51.910;8.374;2023-02-20T06:08:59;6.90;99.90
37002;DHT22;22913;51.910;8.374;2023-02-20T06:11:49;6.90;99.90
37002;DHT22;22913;51.910;8.374;2023-02-20T06:14:35;6.90;99.90
37002;DHT22;22913;51.910;8.374;2023-02-20T06:17:23;6.90;99.90
37002;DHT22;22913;51.910;8.374;2023-02-20T06:20:09;6.90;99.90
37002;DHT22;22913;51.910;8.374;2023-02-20T06:22:55;6.90;99.90
37002;DHT22;22913;51.910;8.374;2023-02-20T06:25:40;6.80;99.90
37002;DHT22;22913;51.910;8.374;2023-02-20T06:28:26;6.80;99.90
37002;DHT22;22913;51.910;8.374;2023-02-20T06:31:12;6.80;99.90
37002;DHT22;22913;51.910;8.374;2023-02-20T06:33:59;6.80;99.90
37002;DHT22;22913;51.910;8.374;2023-02-20T06:36:45;6.80;99.90
37002;DHT22;22913;51.910;8.374;2023-02-20T06:39:31;6.80;99.90
37002;DHT22;22913;51.910;8.374;2023-02-20T06:42:17;6.80;99.90
37002;DHT22;22913;51.910;8.374;2023-02-20T06:45:04;6.80;99.90
37002;DHT22;22913;51.910;8.374;2023-02-20T06:47:49;6.80;99.90
37002;DHT22;22913;51.910;8.374;2023-02-20T06:50:37;6.80;99.90
37002;DHT22;22913;51.910;8.374;2023-02-20T06:53:22;6.80;99.90
37002;DHT22;22913;51.910;8.374;2023-02-20T06:56:09;6.90;99.90
37002;DHT22;22913;51.910;8.374;2023-02-20T06:58:55;6.80;99.90
37002;DHT22;22913;51.910;8.374;2023-02-20T07:01:42;6.80;99.90
37002;DHT22;22913;51.910;8.374;2023-02-20T07:04:28;6.90;99.90
37002;DHT22;22913;51.910;8.374;2023-02-20T07:07:15;6.90;99.90
37002;DHT22;22913;51.910;8.374;2023-02-20T07:10:01;6.90;99.90
37002;DHT22;22913;51.910;8.374;2023-02-20T07:12:49;6.80;99.90
37002;DHT22;22913;51.910;8.374;2023-02-20T07:15:34;6.80;99.90
37002;DHT22;22913;51.910;8.374;2023-02-20T07:18:20;6.80;99.90
37002;DHT22;22913;51.910;8.374;2023-02-20T07:21:07;6.80;99.90
37002;DHT22;22913;51.910;8.374;2023-02-20T07:23:54;6.70;99.90
37002;DHT22;22913;51.910;8.374;2023-02-20T07:26:40;6.70;99.90
37002;DHT22;22913;51.910;8.374;2023-02-20T07:29:26;6.80;99.90
37002;DHT22;22913;51.910;8.374;2023-02-20T07:32:12;6.80;99.90
37002;DHT22;22913;51.910;8.374;2023-02-20T07:34:58;6.80;99.90
37002;DHT22;22913;51.910;8.374;2023-02-20T07:37:44;6.80;99.90
37002;DHT22;22913;51.910;8.374;2023-02-20T07:40:30;6.70;99.90
37002;DHT22;22913;51.910;8.374;2023-02-20T07:43:16;6.70;99.90
37002;DHT22;22913;51.910;8.374;2023-02-20T07:46:02;6.70;99.90
37002;DHT22;22913;51.910;8.374;2023-02-20T07:48:47;6.70;99.90
37002;DHT22;22913;51.910;8.374;2023-02-20T07:51:32;6.70;99.90
37002;DHT22;22913;51.910;8.374;2023-02-20T07:54:18;6.70;99.90
37002;DHT22;22913;51.910;8.374;2023-02-20T07:57:05;6.70;99.90
37002;DHT22;22913;51.910;8.374;2023-02-20T07:59:50;6.70;99.90
37002;DHT22;22913;51.910;8.374;2023-02-20T08:02:36;6.70;99.90
37002;DHT22;22913;51.910;8.374;2023-02-20T08:05:21;6.70;99.90
37002;DHT22;22913;51.910;8.374;2023-02-20T08:08:07;6.60;99.90
37002;DHT22;22913;51.910;8.374;2023-02-20T08:10:54;6.70;99.90
37002;DHT22;22913;51.910;8.374;2023-02-20T08:13:42;6.70;99.90
37002;DHT22;22913;51.910;8.374;2023-02-20T08:16:28;6.70;99.90
37002;DHT22;22913;51.910;8.374;2023-02-20T08:19:14;6.80;99.90
37002;DHT22;22913;51.910;8.374;2023-02-20T08:22:00;6.80;99.90
37002;DHT22;22913;51.910;8.374;2023-02-20T08:24:45;6.80;99.90
37002;DHT22;22913;51.910;8.374;2023-02-20T08:27:31;6.80;99.90
37002;DHT22;22913;51.910;8.374;2023-02-20T08:30:24;6.80;99.90
37002;DHT22;22913;51.910;8.374;2023-02-20T08:33:10;6.90;99.90
37002;DHT22;22913;51.910;8.374;2023-02-20T08:35:55;6.80;99.90
37002;DHT22;22913;51.910;8.374;2023-02-20T08:38:42;6.70;99.90
37002;DHT22;22913;51.910;8.374;2023-02-20T08:41:27;6.80;99.90
37002;DHT22;22913;51.910;8.374;2023-02-20T08:44:13;6.90;99.90
37002;DHT22;22913;51.910;8.374;2023-02-20T08:47:00;6.80;99.90
37002;DHT22;22913;51.910;8.374;2023-02-20T08:49:46;6.80;99.90
37002;DHT22;22913;51.910;8.374;2023-02-20T08:52:32;6.90;99.90
37002;DHT22;22913;51.910;8.374;2023-02-20T08:55:17;6.90;99.90
37002;DHT22;22913;51.910;8.374;2023-02-20T08:58:03;6.90;99.90
37002;DHT22;22913;51.910;8.374;2023-02-20T09:00:49;7.00;99.90
37002;DHT22;22913;51.910;8.374;2023-02-20T09:03:36;7.00;99.90
37002;DHT22;22913;51.910;8.374;2023-02-20T09:06:24;7.00;99.90
37002;DHT22;22913;51.910;8.374;2023-02-20T09:09:11;7.00;99.90
37002;DHT22;22913;51.910;8.374;2023-02-20T09:11:57;7.00;99.90
37002;DHT22;22913;51.910;8.374;2023-02-20T09:14:42;7.00;99.90
37002;DHT22;22913;51.910;8.374;2023-02-20T09:17:28;7.00;99.90
37002;DHT22;22913;51.910;8.374;2023-02-20T09:20:17;7.10;99.90
37002;DHT22;22913;51.910;8.374;2023-02-20T09:23:04;7.00;99.90
37002;DHT22;22913;51.910;8.374;2023-02-20T09:25:49;6.90;99.90
37002;DHT22;22913;51.910;8.374;2023-02-20T09:28:35;7.00;99.90
37002;DHT22;22913;51.910;8.374;2023-02-20T09:31:20;7.00;99.90
37002;DHT22;22913;51.910;8.374;2023-02-20T09:34:06;7.10;99.90
37002;DHT22;22913;51.910;8.374;2023-02-20T09:36:53;7.00;99.90
37002;DHT22;22913;51.910;8.374;2023-02-20T09:39:39;7.10;99.90
37002;DHT22;22913;51.910;8.374;2023-02-20T09:42:32;7.20;99.90
37002;DHT22;22913;51.910;8.374;2023-02-20T09:45:24;7.20;99.90
37002;DHT22;22913;51.910;8.374;2023-02-20T09:48:27;7.10;99.90
37002;DHT22;22913;51.910;8.374;2023-02-20T09:51:17;7.20;99.90
37002;DHT22;22913;51.910;8.374;2023-02-20T09:54:08;7.20;99.90
37002;DHT22;22913;51.910;8.374;2023-02-20T09:56:57;7.20;99.90
37002;DHT22;22913;51.910;8.374;2023-02-20T09:59:46;7.30;99.90
37002;DHT22;22913;51.910;8.374;2023-02-20T10:02:36;7.30;99.90
37002;DHT22;22913;51.910;8.374;2023-02-20T10:05:27;7.30;99.90
37002;DHT22;22913;51.910;8.374;2023-02-20T10:08:17;7.30;99.90
37002;DHT22;22913;51.910;8.374;2023-02-20T10:11:05;7.30;99.90
37002;DHT22;22913;51.910;8.374;2023-02-20T10:14:01;7.40;99.90
37002;DHT22;22913;51.910;8.374;2023-02-20T10:16:54;7.40;99.90
37002;DHT22;22913;51.910;8.374;2023-02-20T10:19:49;7.50;99.90
37002;DHT22;22913;51.910;8.374;2023-02-20T10:22:43;7.60;99.90
37002;DHT22;22913;51.910;8.374;2023-02-20T10:25:34;7.60;99.90
37002;DHT22;22913;51.910;8.374;2023-02-20T10:28:21;7.60;99.90
37002;DHT22;22913;51.910;8.374;2023-02-20T10:31:22;7.70;99.90
37002;DHT22;22913;51.910;8.374;2023-02-20T10:34:15;7.70;99.90
37002;DHT22;22913;51.910;8.374;2023-02-20T10:37:07;7.70;99.90
37002;DHT22;22913;51.910;8.374;2023-02-20T10:39:58;7.70;99.90
37002;DHT22;22913;51.910;8.374;2023-02-20T10:42:50;7.70;99.90
37002;DHT22;22913;51.910;8.374;2023-02-20T10:45:44;7.70;99.90
37002;DHT22;22913;51.910;8.374;2023-02-20T10:48:32;7.80;99.90
37002;DHT22;22913;51.910;8.374;2023-02-20T10:51:23;7.80;99.90
37002;DHT22;22913;51.910;8.374;2023-02-20T10:54:15;7.70;99.90
37002;DHT22;22913;51.910;8.374;2023-02-20T10:57:06;7.70;99.90
37002;DHT22;22913;51.910;8.374;2023-02-20T10:59:54;7.70;99.90
37002;DHT22;22913;51.910;8.374;2023-02-20T11:02:51;7.70;99.90
37002;DHT22;22913;51.910;8.374;2023-02-20T11:05:45;7.70;99.90
37002;DHT22;22913;51.910;8.374;2023-02-20T11:08:32;7.70;99.90
37002;DHT22;22913;51.910;8.374;2023-02-20T11:11:26;7.60;99.90
37002;DHT22;22913;51.910;8.374;2023-02-20T11:14:14;7.60;99.90
37002;DHT22;22913;51.910;8.374;2023-02-20T11:17:03;7.60;99.90
37002;DHT22;22913;51.910;8.374;2023-02-20T11:19:53;7.50;99.90
37002;DHT22;22913;51.910;8.374;2023-02-20T11:22:42;7.60;99.90
37002;DHT22;22913;51.910;8.374;2023-02-20T11:25:29;7.50;99.90
37002;DHT22;22913;51.910;8.374;2023-02-20T11:28:20;7.60;99.90
37002;DHT22;22913;51.910;8.374;2023-02-20T11:31:06;7.60;99.90
37002;DHT22;22913;51.910;8.374;2023-02-20T11:33:54;7.70;99.90
37002;DHT22;22913;51.910;8.374;2023-02-20T11:36:44;7.70;99.90
37002;DHT22;22913;51.910;8.374;2023-02-20T11:39:32;7.60;99.90
37002;DHT22;22913;51.910;8.374;2023-02-20T11:42:19;7.60;99.90
37002;DHT22;22913;51.910;8.374;2023-02-20T11:45:12;7.70;99.90
37002;DHT22;22913;51.910;8.374;2023-02-20T11:48:09;7.70;99.90
37002;DHT22;22913;51.910;8.374;2023-02-20T11:50:55;7.70;99.90
37002;DHT22;22913;51.910;8.374;2023-02-20T11:53:42;7.70;99.90
37002;DHT22;22913;51.910;8.374;2023-02-20T11:56:27;7.80;99.90
37002;DHT22;22913;51.910;8.374;2023-02-20T11:59:26;7.80;99.90
37002;DHT22;22913;51.910;8.374;2023-02-20T12:02:27;7.80;99.90
37002;DHT22;22913;51.910;8.374;2023-02-20T12:05:14;7.80;99.90
37002;DHT22;22913;51.910;8.374;2023-02-20T12:07:59;7.90;99.90
37002;DHT22;22913;51.910;8.374;2023-02-20T12:10:48;7.90;99.90
37002;DHT22;22913;51.910;8.374;2023-02-20T12:13:38;7.90;99.90
37002;DHT22;22913;51.910;8.374;2023-02-20T12:16:31;7.90;99.90
37002;DHT22;22913;51.910;8.374;2023-02-20T12:19:23;8.00;99.90
37002;DHT22;22913;51.910;8.374;2023-02-20T12:22:16;8.10;99.90
37002;DHT22;22913;51.910;8.374;2023-02-20T12:25:14;8.10;99.90
37002;DHT22;22913;51.910;8.374;2023-02-20T12:28:08;8.10;99.90
37002;DHT22;22913;51.910;8.374;2023-02-20T12:31:04;8.20;99.90
37002;DHT22;22913;51.910;8.374;2023-02-20T12:34:08;8.20;99.90
37002;DHT22;22913;51.910;8.374;2023-02-20T12:37:05;8.20;99.90
37002;DHT22;22913;51.910;8.374;2023-02-20T12:40:01;8.20;99.90
37002;DHT22;22913;51.910;8.374;2023-02-20T12:42:52;8.20;99.90
37002;DHT22;22913;51.910;8.374;2023-02-20T12:45:46;8.30;99.90
37002;DHT22;22913;51.910;8.374;2023-02-20T12:48:45;8.30;99.90
37002;DHT22;22913;51.910;8.374;2023-02-20T12:51:40;8.30;99.90
37002;DHT22;22913;51.910;8.374;2023-02-20T12:54:35;8.30;99.90
37002;DHT22;22913;51.910;8.374;2023-02-20T12:57:28;8.40;99.90
37002;DHT22;22913;51.910;8.374;2023-02-20T13:00:29;8.30;99.90
37002;DHT22;22913;51.910;8.374;2023-02-20T13:03:19;8.30;99.90
37002;DHT22;22913;51.910;8.374;2023-02-20T13:06:08;8.30;99.90
37002;DHT22;22913;51.910;8.374;2023-02-20T13:09:02;8.30;99.90
37002;DHT22;22913;51.910;8.374;2023-02-20T13:11:51;8.30;99.90
37002;DHT22;22913;51.910;8.374;2023-02-20T13:14:50;8.30;99.90
37002;DHT22;22913;51.910;8.374;2023-02-20T13:17:41;8.30;99.90
37002;DHT22;22913;51.910;8.374;2023-02-20T13:20:32;8.30;99.90
37002;DHT22;22913;51.910;8.374;2023-02-20T13:23:28;8.30;99.90
37002;DHT22;22913;51.910;8.374;2023-02-20T13:29:35;8.30;99.90
37002;DHT22;22913;51.910;8.374;2023-02-20T13:32:23;8.30;99.90
37002;DHT22;22913;51.910;8.374;2023-02-20T13:35:41;8.30;99.90
37002;DHT22;22913;51.910;8.374;2023-02-20T13:38:30;8.30;99.90
37002;DHT22;22913;51.910;8.374;2023-02-20T13:41:16;8.30;99.90
37002;DHT22;22913;51.910;8.374;2023-02-20T13:44:36;8.40;99.90
37002;DHT22;22913;51.910;8.374;2023-02-20T13:47:33;8.40;99.90
37002;DHT22;22913;51.910;8.374;2023-02-20T13:50:32;8.40;99.90
37002;DHT22;22913;51.910;8.374;2023-02-20T13:53:18;8.40;99.90
37002;DHT22;22913;51.910;8.374;2023-02-20T13:56:04;8.40;99.90
37002;DHT22;22913;51.910;8.374;2023-02-20T13:58:50;8.40;99.90
37002;DHT22;22913;51.910;8.374;2023-02-20T14:04:57;8.40;99.90
37002;DHT22;22913;51.910;8.374;2023-02-20T14:07:45;8.40;99.90
37002;DHT22;22913;51.910;8.374;2023-02-20T14:10:33;8.50;99.90
37002;DHT22;22913;51.910;8.374;2023-02-20T14:13:21;8.50;99.90
37002;DHT22;22913;51.910;8.374;2023-02-20T14:16:25;8.50;99.90
37002;DHT22;22913;51.910;8.374;2023-02-20T14:19:15;8.50;99.90
37002;DHT22;22913;51.910;8.374;2023-02-20T14:22:23;8.50;99.90
37002;DHT22;22913;51.910;8.374;2023-02-20T14:25:19;8.50;99.90
37002;DHT22;22913;51.910;8.374;2023-02-20T14:28:09;8.40;99.90
37002;DHT22;22913;51.910;8.374;2023-02-20T14:31:18;8.50;99.90
37002;DHT22;22913;51.910;8.374;2023-02-20T14:34:07;8.50;99.90
37002;DHT22;22913;51.910;8.374;2023-02-20T14:37:03;8.60;99.90
37002;DHT22;22913;51.910;8.374;2023-02-20T14:39:54;8.50;99.90
37002;DHT22;22913;51.910;8.374;2023-02-20T14:42:46;8.50;99.90
37002;DHT22;22913;51.910;8.374;2023-02-20T14:45:31;8.50;99.90
37002;DHT22;22913;51.910;8.374;2023-02-20T14:48:23;8.50;99.90
37002;DHT22;22913;51.910;8.374;2023-02-20T14:51:14;8.50;99.90
37002;DHT22;22913;51.910;8.374;2023-02-20T14:54:01;8.50;99.90
37002;DHT22;22913;51.910;8.374;2023-02-20T14:56:49;8.40;99.90
37002;DHT22;22913;51.910;8.374;2023-02-20T14:59:37;8.40;99.90
37002;DHT22;22913;51.910;8.374;2023-02-20T15:02:26;8.40;99.90
37002;DHT22;22913;51.910;8.374;2023-02-20T15:05:14;8.50;99.90
37002;DHT22;22913;51.910;8.374;2023-02-20T15:08:05;8.50;99.90
37002;DHT22;22913;51.910;8.374;2023-02-20T15:10:56;8.50;99.90
37002;DHT22;22913;51.910;8.374;2023-02-20T15:13:51;8.40;99.90
37002;DHT22;22913;51.910;8.374;2023-02-20T15:16:39;8.40;99.90
37002;DHT22;22913;51.910;8.374;2023-02-20T15:19:32;8.50;99.90
37002;DHT22;22913;51.910;8.374;2023-02-20T15:22:28;8.50;99.90
37002;DHT22;22913;51.910;8.374;2023-02-20T15:25:26;8.40;99.90
37002;DHT22;22913;51.910;8.374;2023-02-20T15:28:24;8.40;99.90
37002;DHT22;22913;51.910;8.374;2023-02-20T15:31:20;8.40;99.90
37002;DHT22;22913;51.910;8.374;2023-02-20T15:34:22;8.50;99.90
37002;DHT22;22913;51.910;8.374;2023-02-20T15:37:18;8.40;99.90
37002;DHT22;22913;51.910;8.374;2023-02-20T15:40:18;8.30;99.90
37002;DHT22;22913;51.910;8.374;2023-02-20T15:43:07;8.30;99.90
37002;DHT22;22913;51.910;8.374;2023-02-20T15:45:54;8.20;99.90
37002;DHT22;22913;51.910;8.374;2023-02-20T15:48:40;8.30;99.90
37002;DHT22;22913;51.910;8.374;2023-02-20T15:51:28;8.30;99.90
37002;DHT22;22913;51.910;8.374;2023-02-20T15:54:16;8.30;99.90
37002;DHT22;22913;51.910;8.374;2023-02-20T15:57:02;8.30;99.90
37002;DHT22;22913;51.910;8.374;2023-02-20T15:59:49;8.30;99.90
37002;DHT22;22913;51.910;8.374;2023-02-20T16:02:34;8.30;99.90
37002;DHT22;22913;51.910;8.374;2023-02-20T16:05:20;8.30;99.90
37002;DHT22;22913;51.910;8.374;2023-02-20T16:08:07;8.30;99.90
37002;DHT22;22913;51.910;8.374;2023-02-20T16:10:53;8.30;99.90
37002;DHT22;22913;51.910;8.374;2023-02-20T16:13:41;8.20;99.90
37002;DHT22;22913;51.910;8.374;2023-02-20T16:16:32;8.20;99.90
37002;DHT22;22913;51.910;8.374;2023-02-20T16:19:19;8.20;99.90
37002;DHT22;22913;51.910;8.374;2023-02-20T16:22:05;8.20;99.90
37002;DHT22;22913;51.910;8.374;2023-02-20T16:24:52;8.20;99.90
37002;DHT22;22913;51.910;8.374;2023-02-20T16:27:38;8.10;99.90
37002;DHT22;22913;51.910;8.374;2023-02-20T16:30:27;8.20;99.90
37002;DHT22;22913;51.910;8.374;2023-02-20T16:33:15;8.10;99.90
37002;DHT22;22913;51.910;8.374;2023-02-20T16:36:01;8.10;99.90
37002;DHT22;22913;51.910;8.374;2023-02-20T16:38:47;8.10;99.90
37002;DHT22;22913;51.910;8.374;2023-02-20T16:41:34;8.10;99.90
37002;DHT22;22913;51.910;8.374;2023-02-20T16:44:23;8.10;99.90
37002;DHT22;22913;51.910;8.374;2023-02-20T16:47:09;8.10;99.90
37002;DHT22;22913;51.910;8.374;2023-02-20T16:49:56;8.00;99.90
37002;DHT22;22913;51.910;8.374;2023-02-20T16:52:45;8.00;99.90
37002;DHT22;22913;51.910;8.374;2023-02-20T16:55:32;8.00;99.90
37002;DHT22;22913;51.910;8.374;2023-02-20T16:58:19;8.00;99.90
37002;DHT22;22913;51.910;8.374;2023-02-20T17:01:05;7.90;99.90
37002;DHT22;22913;51.910;8.374;2023-02-20T17:03:50;7.90;99.90
37002;DHT22;22913;51.910;8.374;2023-02-20T17:06:36;7.90;99.90
37002;DHT22;22913;51.910;8.374;2023-02-20T17:09:21;7.90;99.90
37002;DHT22;22913;51.910;8.374;2023-02-20T17:12:07;7.90;99.90
37002;DHT22;22913;51.910;8.374;2023-02-20T17:14:54;8.00;99.90
37002;DHT22;22913;51.910;8.374;2023-02-20T17:17:41;7.90;99.90
37002;DHT22;22913;51.910;8.374;2023-02-20T17:20:26;7.90;99.90
37002;DHT22;22913;51.910;8.374;2023-02-20T17:23:12;7.90;99.90
37002;DHT22;22913;51.910;8.374;2023-02-20T17:25:58;7.90;99.90
37002;DHT22;22913;51.910;8.374;2023-02-20T17:28:43;7.90;99.90
37002;DHT22;22913;51.910;8.374;2023-02-20T17:31:31;7.90;99.90
37002;DHT22;22913;51.910;8.374;2023-02-20T17:34:17;7.90;99.90
37002;DHT22;22913;51.910;8.374;2023-02-20T17:37:04;7.90;99.90
37002;DHT22;22913;51.910;8.374;2023-02-20T17:39:49;7.90;99.90
37002;DHT22;22913;51.910;8.374;2023-02-20T17:42:35;7.90;99.90
37002;DHT22;22913;51.910;8.374;2023-02-20T17:45:21;7.90;99.90
37002;DHT22;22913;51.910;8.374;2023-02-20T17:48:08;7.90;99.90
37002;DHT22;22913;51.910;8.374;2023-02-20T17:50:53;7.90;99.90
37002;DHT22;22913;51.910;8.374;2023-02-20T17:53:39;8.00;99.90
37002;DHT22;22913;51.910;8.374;2023-02-20T17:56:25;8.00;99.90
37002;DHT22;22913;51.910;8.374;2023-02-20T17:59:10;7.90;99.90
37002;DHT22;22913;51.910;8.374;2023-02-20T18:01:56;8.00;99.90
37002;DHT22;22913;51.910;8.374;2023-02-20T18:04:43;8.00;99.90
37002;DHT22;22913;51.910;8.374;2023-02-20T18:07:29;8.00;99.90
37002;DHT22;22913;51.910;8.374;2023-02-20T18:10:15;8.00;99.90
37002;DHT22;22913;51.910;8.374;2023-02-20T18:13:01;8.00;99.90
37002;DHT22;22913;51.910;8.374;2023-02-20T18:15:47;8.00;99.90
37002;DHT22;22913;51.910;8.374;2023-02-20T18:18:32;8.00;99.90